createdAt,value
2022-08-22T00:03:08.633Z,101777.75
2022-08-22T00:03:29.236Z,101777.75
2022-08-22T00:09:17.180Z,101765.25
2022-08-22T00:14:37.760Z,101769.63
2022-08-22T00:20:08.200Z,101778.56
2022-08-22T00:25:24.722Z,101780.63
2022-08-22T00:30:35.212Z,101782.25
2022-08-22T00:35:52.280Z,101782.03
2022-08-22T00:41:46.076Z,101777.03
2022-08-22T00:47:03.977Z,101779.06
2022-08-22T00:52:13.979Z,101769.25
2022-08-22T00:57:34.139Z,101769.22
2022-08-22T01:03:07.660Z,101767.53
2022-08-22T01:08:41.879Z,101772.28
2022-08-22T01:14:01.207Z,101768.69
2022-08-22T01:19:24.844Z,101769.09
2022-08-22T01:24:29.509Z,101767.81
2022-08-22T01:29:53.947Z,101775.47
2022-08-22T01:35:03.847Z,101772.75
2022-08-22T01:40:27.196Z,101783.13
2022-08-22T01:45:35.203Z,101790.78
2022-08-22T01:50:44.131Z,101783.28
2022-08-22T01:55:58.722Z,101782.44
2022-08-22T02:01:20.933Z,101787.00
2022-08-22T02:07:02.071Z,101778.03
2022-08-22T02:12:35.773Z,101783.19
2022-08-22T02:18:01.209Z,101777.53
2022-08-22T02:23:41.605Z,101786.22
2022-08-22T02:28:57.862Z,101790.16
2022-08-22T02:34:02.592Z,101785.97
2022-08-22T02:39:15.956Z,101785.34
2022-08-22T02:44:24.462Z,101781.34
2022-08-22T02:49:27.449Z,101789.25
2022-08-22T02:54:40.532Z,101789.25
2022-08-22T03:00:31.229Z,101784.88
2022-08-22T03:05:39.981Z,101782.78
2022-08-22T03:10:47.957Z,101786.66
2022-08-22T03:15:59.991Z,101782.31
2022-08-22T03:21:21.555Z,101771.97
2022-08-22T03:26:41.319Z,101772.34
2022-08-22T03:32:10.488Z,101779.16
2022-08-22T03:37:15.275Z,101783.69
2022-08-22T03:42:55.904Z,101783.69
2022-08-22T03:48:00.521Z,101780.34
2022-08-22T03:53:24.476Z,101774.28
2022-08-22T03:59:09.857Z,101780.28
2022-08-22T04:04:35.464Z,101776.28
2022-08-22T04:10:22.522Z,101785.78
2022-08-22T04:16:11.900Z,101790.19
2022-08-22T04:21:24.023Z,101801.34
2022-08-22T04:26:54.467Z,101798.81
2022-08-22T04:32:26.780Z,101796.78
2022-08-22T04:37:28.451Z,101799.09
2022-08-22T04:42:35.397Z,101798.94
2022-08-22T04:47:40.733Z,101798.81
2022-08-22T04:53:04.885Z,101802.22
2022-08-22T04:59:03.052Z,101805.47
2022-08-22T05:04:19.240Z,101808.44
2022-08-22T05:09:29.023Z,101807.91
2022-08-22T05:14:40.040Z,101805.34
2022-08-22T05:19:46.140Z,101813.28
2022-08-22T05:24:55.876Z,101821.47
2022-08-22T05:30:11.805Z,101830.06
2022-08-22T05:35:14.586Z,101830.16
2022-08-22T05:40:29.846Z,101826.38
2022-08-22T05:45:34.216Z,101828.69
2022-08-22T05:50:40.827Z,101821.03
2022-08-22T05:55:45.679Z,101829.38
2022-08-22T06:00:53.892Z,101834.41
2022-08-22T06:06:11.583Z,101834.00
2022-08-22T06:11:30.093Z,101835.28
2022-08-22T06:16:48.765Z,101841.56
2022-08-22T06:21:54.400Z,101836.09
2022-08-22T06:27:09.497Z,101835.81
2022-08-22T06:32:59.500Z,101845.56
2022-08-22T06:38:00.617Z,101858.72
2022-08-22T06:43:06.421Z,101858.28
2022-08-22T06:48:08.516Z,101850.94
2022-08-22T06:53:19.209Z,101862.38
2022-08-22T06:58:25.992Z,101861.72
2022-08-22T07:03:35.299Z,101869.22
2022-08-22T07:08:39.185Z,101862.75
2022-08-22T07:13:59.102Z,101862.97
2022-08-22T07:19:03.296Z,101869.22
2022-08-22T07:24:09.780Z,101871.94
2022-08-22T07:29:25.800Z,101870.25
2022-08-22T07:34:53.502Z,101877.31
2022-08-22T07:40:19.100Z,101880.22
2022-08-22T07:45:39.354Z,101873.47
2022-08-22T07:51:01.337Z,101881.38
2022-08-22T07:56:10.803Z,101878.16
2022-08-22T08:01:21.240Z,101877.69
2022-08-22T08:06:24.466Z,101884.72
2022-08-22T08:11:32.954Z,101877.97
2022-08-22T08:17:05.978Z,101867.88
2022-08-22T08:22:10.413Z,101862.78
2022-08-22T08:27:34.308Z,101868.16
2022-08-22T08:32:37.646Z,101858.06
2022-08-22T08:38:11.578Z,101859.25
2022-08-22T08:43:39.037Z,101866.19
2022-08-22T08:49:06.862Z,101848.31
2022-08-22T08:54:17.838Z,101851.72
2022-08-22T08:59:56.773Z,101852.75
2022-08-22T09:05:24.566Z,101853.28
2022-08-22T09:10:53.333Z,101855.91
2022-08-22T09:16:08.155Z,101849.34
2022-08-22T09:21:31.492Z,101849.38
2022-08-22T09:26:57.249Z,101846.44
2022-08-22T09:32:13.057Z,101851.31
2022-08-22T09:37:24.170Z,101844.50
2022-08-22T09:42:47.046Z,101847.28
2022-08-22T09:48:07.145Z,101846.72
2022-08-22T09:53:27.129Z,101844.50
2022-08-22T09:58:47.650Z,101839.16
2022-08-22T10:04:19.590Z,101836.59
2022-08-22T10:09:26.920Z,101827.25
2022-08-22T10:14:50.646Z,101835.22
2022-08-22T10:20:02.304Z,101826.81
2022-08-22T10:25:13.161Z,101830.41
2022-08-22T10:30:24.800Z,101828.59
2022-08-22T10:35:51.032Z,101825.75
2022-08-22T10:41:14.448Z,101835.34
2022-08-22T10:46:28.608Z,101831.34
2022-08-22T10:51:47.689Z,101820.06
2022-08-22T10:57:11.099Z,101823.50
2022-08-22T11:02:33.269Z,101828.97
2022-08-22T11:07:44.588Z,101819.59
2022-08-22T11:13:29.082Z,101834.53
2022-08-22T11:19:02.869Z,101828.50
2022-08-22T11:24:35.297Z,101818.41
2022-08-22T11:30:18.152Z,101817.66
2022-08-22T11:35:26.235Z,101816.78
2022-08-22T11:40:38.752Z,101810.38
2022-08-22T11:45:48.178Z,101814.34
2022-08-22T11:50:55.745Z,101805.56
2022-08-22T11:56:12.522Z,101797.00
2022-08-22T12:01:18.647Z,101809.25
2022-08-22T12:06:46.731Z,101808.28
2022-08-22T12:11:57.701Z,101803.13
2022-08-22T12:17:50.717Z,101803.50
2022-08-22T12:23:40.053Z,101800.88
2022-08-22T12:29:27.472Z,101796.00
2022-08-22T12:34:57.442Z,101791.16
2022-08-22T12:40:13.645Z,101793.66
2022-08-22T12:45:55.976Z,101785.63
2022-08-22T12:51:18.169Z,101776.16
2022-08-22T12:56:35.960Z,101775.50
2022-08-22T13:01:49.628Z,101774.94
2022-08-22T13:07:24.737Z,101765.22
2022-08-22T13:12:32.738Z,101759.59
2022-08-22T13:17:37.117Z,101755.56
2022-08-22T13:22:45.377Z,101746.84
2022-08-22T13:27:56.209Z,101747.53
2022-08-22T13:33:11.088Z,101748.06
2022-08-22T13:38:17.425Z,101739.56
2022-08-22T13:43:30.364Z,101735.47
2022-08-22T13:48:49.668Z,101738.41
2022-08-22T13:54:24.889Z,101734.66
2022-08-22T13:59:51.796Z,101736.13
2022-08-22T14:05:00.522Z,101733.69
2022-08-22T14:10:21.666Z,101733.44
2022-08-22T14:15:44.811Z,101725.22
2022-08-22T14:20:49.712Z,101722.94
2022-08-22T14:25:52.077Z,101728.59
2022-08-22T14:31:07.278Z,101731.94
2022-08-22T14:36:19.991Z,101725.13
2022-08-22T14:41:55.441Z,101717.00
2022-08-22T14:47:03.713Z,101709.88
2022-08-22T14:52:09.668Z,101711.34
2022-08-22T14:57:20.231Z,101698.69
2022-08-22T15:02:25.592Z,101689.53
2022-08-22T15:07:36.274Z,101685.00
2022-08-22T15:12:48.382Z,101687.06
2022-08-22T15:17:53.843Z,101677.78
2022-08-22T15:23:10.153Z,101678.75
2022-08-22T15:28:20.230Z,101676.38
2022-08-22T15:33:33.288Z,101677.47
2022-08-22T15:38:42.135Z,101673.69
2022-08-22T15:44:32.239Z,101665.28
2022-08-22T15:49:50.819Z,101656.63
2022-08-22T15:54:57.029Z,101658.00
2022-08-22T16:00:04.788Z,101654.25
2022-08-22T16:05:14.245Z,101653.94
2022-08-22T16:10:24.331Z,101639.72
2022-08-22T16:15:56.361Z,101650.59
2022-08-22T16:21:02.173Z,101650.19
2022-08-22T16:26:08.629Z,101647.28
2022-08-22T16:31:28.963Z,101643.91
2022-08-22T16:36:54.669Z,101636.16
2022-08-22T16:42:16.345Z,101632.31
2022-08-22T16:47:32.621Z,101636.44
2022-08-22T16:52:54.677Z,101634.56
2022-08-22T16:58:21.885Z,101635.13
2022-08-22T17:03:32.543Z,101638.28
2022-08-22T17:08:57.718Z,101634.22
2022-08-22T17:14:12.503Z,101638.25
2022-08-22T17:19:34.806Z,101636.91
2022-08-22T17:24:51.682Z,101629.38
2022-08-22T17:29:55.623Z,101628.91
2022-08-22T17:35:16.017Z,101628.75
2022-08-22T17:40:52.462Z,101619.75
2022-08-22T17:46:16.118Z,101626.44
2022-08-22T17:51:39.283Z,101636.88
2022-08-22T17:57:22.408Z,101621.16
2022-08-22T18:02:39.412Z,101630.47
2022-08-22T18:07:58.635Z,101631.13
2022-08-22T18:13:16.844Z,101634.28
2022-08-22T18:18:31.161Z,101633.84
2022-08-22T18:23:43.454Z,101636.34
2022-08-22T18:29:13.612Z,101645.44
2022-08-22T18:34:42.881Z,101643.50
2022-08-22T18:40:01.338Z,101633.97
2022-08-22T18:45:06.126Z,101640.88
2022-08-22T18:50:31.003Z,101642.69
2022-08-22T18:55:46.024Z,101648.53
2022-08-22T19:01:01.830Z,101657.41
2022-08-22T19:06:19.572Z,101654.09
2022-08-22T19:11:38.100Z,101658.97
2022-08-22T19:17:01.574Z,101655.66
2022-08-22T19:22:24.603Z,101649.84
2022-08-22T19:27:31.524Z,101649.50
2022-08-22T19:32:46.319Z,101652.97
2022-08-22T19:38:07.965Z,101649.28
2022-08-22T19:43:25.063Z,101654.97
2022-08-22T19:48:33.987Z,101660.69
2022-08-22T19:53:49.708Z,101651.06
2022-08-22T19:58:54.291Z,101664.97
2022-08-22T20:04:29.018Z,101659.75
2022-08-22T20:09:53.080Z,101648.59
2022-08-22T20:14:55.551Z,101649.47
2022-08-22T20:20:18.547Z,101641.63
2022-08-22T20:25:41.871Z,101649.25
2022-08-22T20:30:49.249Z,101636.44
2022-08-22T20:35:55.701Z,101636.91
2022-08-22T20:41:20.900Z,101635.50
2022-08-22T20:46:46.149Z,101636.94
2022-08-22T20:51:56.786Z,101630.38
2022-08-22T20:57:19.321Z,101616.88
2022-08-22T21:02:25.083Z,101620.56
2022-08-22T21:07:30.558Z,101625.28
2022-08-22T21:12:34.573Z,101628.72
2022-08-22T21:17:39.296Z,101623.72
2022-08-22T21:22:46.313Z,101626.34
2022-08-22T21:27:48.503Z,101619.09
2022-08-22T21:32:55.514Z,101619.59
2022-08-22T21:38:00.465Z,101619.81
2022-08-22T21:43:11.014Z,101614.84
2022-08-22T21:48:46.263Z,101611.75
2022-08-22T21:54:17.785Z,101613.88
2022-08-22T21:59:50.595Z,101608.44
2022-08-22T22:04:59.593Z,101616.00
2022-08-22T22:10:01.309Z,101612.69
2022-08-22T22:15:06.128Z,101622.75
2022-08-22T22:20:13.774Z,101615.88
2022-08-22T22:25:40.890Z,101614.19
2022-08-22T22:30:50.521Z,101617.63
2022-08-22T22:35:53.344Z,101617.88
2022-08-22T22:40:57.367Z,101626.72
2022-08-22T22:46:03.893Z,101613.97
2022-08-22T22:51:12.513Z,101616.91
2022-08-22T22:56:21.723Z,101609.63
2022-08-22T23:01:25.929Z,101601.13
2022-08-22T23:06:32.488Z,101612.94
2022-08-22T23:11:38.729Z,101618.81
2022-08-22T23:16:47.244Z,101615.38
2022-08-22T23:21:51.331Z,101614.38
2022-08-22T23:26:53.133Z,101615.06
2022-08-22T23:31:58.403Z,101610.31
2022-08-22T23:37:02.305Z,101611.84
2022-08-22T23:42:11.745Z,101614.66
2022-08-22T23:47:14.412Z,101614.13
2022-08-22T23:52:18.708Z,101622.00
2022-08-22T23:57:26.333Z,101621.47
